Time;durP1;ratioP1;P1;durP2;ratioP2;P2;SDS_P1;SDS_P2;PMS_P1;PMS_P2;Temp;Humidity;BMP_temperature;BMP_pressure;BME280_temperature;BME280_humidity;BME280_pressure;Samples;Min_cycle;Max_cycle;Signal;HPM_P1;HPM_P2
2022/03/14 00:01:02;;;;;;;;;;;10.00;99.90;;;;;;5031086;28;20022;-55
2022/03/14 00:03:28;;;;;;;;;;;10.00;99.90;;;;;;5053179;28;19928;-55
2022/03/14 00:05:54;;;;;;;;;;;9.90;99.90;;;;;;5052791;28;19920;-55
2022/03/14 00:08:22;;;;;;;;;;;9.90;99.90;;;;;;5049628;28;19921;-55
2022/03/14 00:10:49;;;;;;;;;;;9.90;99.90;;;;;;5053100;28;19921;-55
2022/03/14 00:13:19;;;;;;;;;;;9.80;99.90;;;;;;5052127;28;20313;-55
2022/03/14 00:15:44;;;;;;;;;;;9.80;99.90;;;;;;5053461;28;20035;-55
2022/03/14 00:18:10;;;;;;;;;;;9.80;99.90;;;;;;5051906;28;20016;-55
2022/03/14 00:20:36;;;;;;;;;;;9.80;99.90;;;;;;5047157;28;20070;-54
2022/03/14 00:23:02;;;;;;;;;;;9.80;99.90;;;;;;5051514;28;20015;-54
2022/03/14 00:25:28;;;;;;;;;;;9.90;99.90;;;;;;5051381;28;20389;-55
2022/03/14 00:27:54;;;;;;;;;;;10.00;99.90;;;;;;5052475;28;20235;-55
2022/03/14 00:30:20;;;;;;;;;;;10.00;99.90;;;;;;5051287;28;19927;-54
2022/03/14 00:32:46;;;;;;;;;;;10.10;99.90;;;;;;5050523;28;19924;-55
2022/03/14 00:35:12;;;;;;;;;;;10.10;99.90;;;;;;5052265;28;19941;-55
2022/03/14 00:37:38;;;;;;;;;;;10.20;99.90;;;;;;5030766;28;19952;-54
2022/03/14 00:40:07;;;;;;;;;;;10.20;99.90;;;;;;5050680;28;19927;-54
2022/03/14 00:42:32;;;;;;;;;;;10.30;99.90;;;;;;5051408;28;19920;-56
2022/03/14 00:44:58;;;;;;;;;;;10.40;99.90;;;;;;5035053;28;19927;-55
2022/03/14 00:47:23;;;;;;;;;;;10.30;99.90;;;;;;5052263;28;20224;-55
2022/03/14 00:49:48;;;;;;;;;;;10.30;99.90;;;;;;5052806;28;19927;-55
2022/03/14 00:52:16;;;;;;;;;;;10.30;99.90;;;;;;5049431;28;19927;-55
2022/03/14 00:54:42;;;;;;;;;;;10.30;99.90;;;;;;5048986;28;19967;-54
2022/03/14 00:57:08;;;;;;;;;;;10.30;99.90;;;;;;5053214;28;19924;-55
2022/03/14 00:59:34;;;;;;;;;;;10.40;99.90;;;;;;5047998;28;20282;-55
2022/03/14 01:01:59;;;;;;;;;;;10.40;99.90;;;;;;5052114;28;20424;-55
2022/03/14 01:04:26;;;;;;;;;;;10.50;99.90;;;;;;5052629;28;19928;-55
2022/03/14 01:06:51;;;;;;;;;;;10.50;99.90;;;;;;5052309;28;20004;-55
2022/03/14 01:09:17;;;;;;;;;;;10.50;99.90;;;;;;5050892;28;20015;-55
2022/03/14 01:11:43;;;;;;;;;;;10.50;99.90;;;;;;5052252;28;19920;-56
2022/03/14 01:14:08;;;;;;;;;;;10.50;99.90;;;;;;5052209;28;19987;-55
2022/03/14 01:16:34;;;;;;;;;;;10.50;99.90;;;;;;5053022;28;19931;-55
2022/03/14 01:19:00;;;;;;;;;;;10.50;99.90;;;;;;5052659;28;20274;-55
2022/03/14 01:21:27;;;;;;;;;;;10.50;99.90;;;;;;5061537;28;19972;-54
2022/03/14 01:23:52;;;;;;;;;;;10.50;99.90;;;;;;5052447;28;19940;-55
2022/03/14 01:26:17;;;;;;;;;;;10.50;99.90;;;;;;5051746;28;19921;-55
2022/03/14 01:28:43;;;;;;;;;;;10.50;99.90;;;;;;5050353;28;20012;-55
2022/03/14 01:31:09;;;;;;;;;;;10.50;99.90;;;;;;5051428;28;19921;-55
2022/03/14 01:33:34;;;;;;;;;;;10.50;99.90;;;;;;5052610;28;20389;-55
2022/03/14 01:36:00;;;;;;;;;;;10.50;99.90;;;;;;5052590;28;20020;-54
2022/03/14 01:38:26;;;;;;;;;;;10.50;99.90;;;;;;5048540;28;19932;-55
2022/03/14 01:40:51;;;;;;;;;;;10.50;99.90;;;;;;5050985;28;19983;-54
2022/03/14 01:43:17;;;;;;;;;;;10.50;99.90;;;;;;5048899;28;20004;-53
2022/03/14 01:45:46;;;;;;;;;;;10.40;99.90;;;;;;5031916;28;19962;-55
2022/03/14 01:48:11;;;;;;;;;;;10.40;99.90;;;;;;5029621;28;19982;-55
2022/03/14 01:50:37;;;;;;;;;;;10.30;99.90;;;;;;5044647;28;20325;-55
2022/03/14 01:53:02;;;;;;;;;;;10.30;99.90;;;;;;5049240;28;19928;-54
2022/03/14 01:55:28;;;;;;;;;;;10.30;99.90;;;;;;5055432;28;20242;-56
2022/03/14 01:57:54;;;;;;;;;;;10.30;99.90;;;;;;5051665;28;19975;-55
2022/03/14 02:00:20;;;;;;;;;;;10.30;99.90;;;;;;5054169;28;19928;-55
2022/03/14 02:02:45;;;;;;;;;;;10.20;99.90;;;;;;5050149;28;19921;-55
2022/03/14 02:05:12;;;;;;;;;;;10.20;99.90;;;;;;5048495;28;19977;-54
2022/03/14 02:07:37;;;;;;;;;;;10.20;99.90;;;;;;5050215;28;19928;-54
2022/03/14 02:10:03;;;;;;;;;;;10.30;99.90;;;;;;5049735;28;19920;-55
2022/03/14 02:12:28;;;;;;;;;;;10.30;99.90;;;;;;5050358;28;19921;-55
2022/03/14 02:14:54;;;;;;;;;;;10.30;99.90;;;;;;5050536;28;19921;-55
2022/03/14 02:17:20;;;;;;;;;;;10.40;99.90;;;;;;5049123;28;19921;-55
2022/03/14 02:19:45;;;;;;;;;;;10.40;99.90;;;;;;5048874;28;19943;-55
2022/03/14 02:22:14;;;;;;;;;;;10.40;99.90;;;;;;5047989;28;19928;-54
2022/03/14 02:24:40;;;;;;;;;;;10.40;99.90;;;;;;5047764;28;19920;-54
2022/03/14 02:27:06;;;;;;;;;;;10.40;99.90;;;;;;5047818;28;19921;-55
2022/03/14 02:29:31;;;;;;;;;;;10.40;99.90;;;;;;5046225;28;19927;-55
2022/03/14 02:31:57;;;;;;;;;;;10.30;99.90;;;;;;5045320;28;19974;-55
2022/03/14 02:34:22;;;;;;;;;;;10.30;99.90;;;;;;5050720;28;19929;-58
2022/03/14 02:36:48;;;;;;;;;;;10.30;99.90;;;;;;5048151;28;20378;-58
2022/03/14 02:39:13;;;;;;;;;;;10.30;99.90;;;;;;5050046;28;19974;-58
2022/03/14 02:41:41;;;;;;;;;;;10.30;99.90;;;;;;5048683;28;19921;-58
2022/03/14 02:44:08;;;;;;;;;;;10.30;99.90;;;;;;5047384;28;20015;-57
2022/03/14 02:46:34;;;;;;;;;;;10.30;99.90;;;;;;5047367;28;19921;-57
2022/03/14 02:49:00;;;;;;;;;;;10.40;99.90;;;;;;5048578;28;19920;-58
2022/03/14 02:51:26;;;;;;;;;;;10.40;99.90;;;;;;5098458;22;19928;-50
2022/03/14 02:53:51;;;;;;;;;;;10.40;99.90;;;;;;5076771;28;19925;-51
2022/03/14 02:56:17;;;;;;;;;;;10.40;99.90;;;;;;5073324;28;19924;-53
2022/03/14 02:58:43;;;;;;;;;;;10.40;99.90;;;;;;5055005;28;19924;-49
2022/03/14 03:01:09;;;;;;;;;;;10.30;99.90;;;;;;5078014;28;20351;-50
2022/03/14 03:03:34;;;;;;;;;;;10.30;99.90;;;;;;5074387;28;19997;-50
2022/03/14 03:06:00;;;;;;;;;;;10.30;99.90;;;;;;5080678;28;19927;-52
2022/03/14 03:08:27;;;;;;;;;;;10.30;99.90;;;;;;5070959;28;20282;-51
2022/03/14 03:10:56;;;;;;;;;;;10.30;99.90;;;;;;5060972;28;20005;-49
2022/03/14 03:13:21;;;;;;;;;;;10.30;99.90;;;;;;5057166;28;20338;-49
2022/03/14 03:15:47;;;;;;;;;;;10.30;99.90;;;;;;5076658;28;19931;-52
2022/03/14 03:18:13;;;;;;;;;;;10.20;99.90;;;;;;5066270;28;19927;-52
2022/03/14 03:20:39;;;;;;;;;;;10.20;99.90;;;;;;5068616;28;19920;-49
2022/03/14 03:23:04;;;;;;;;;;;10.20;99.90;;;;;;5068942;28;19928;-49
2022/03/14 03:25:29;;;;;;;;;;;10.20;99.90;;;;;;5048702;28;20038;-50
2022/03/14 03:27:55;;;;;;;;;;;10.20;99.90;;;;;;5059045;28;19998;-50
2022/03/14 03:30:20;;;;;;;;;;;10.10;99.90;;;;;;5059923;28;19928;-50
2022/03/14 03:32:46;;;;;;;;;;;10.10;99.90;;;;;;5068095;28;19921;-49
2022/03/14 03:35:12;;;;;;;;;;;10.10;99.90;;;;;;5085572;28;20045;-49
2022/03/14 03:37:38;;;;;;;;;;;10.10;99.90;;;;;;5067394;28;19919;-53
2022/03/14 03:40:04;;;;;;;;;;;10.10;99.90;;;;;;5084248;28;19920;-49
2022/03/14 03:42:29;;;;;;;;;;;10.10;99.90;;;;;;5072369;28;20064;-51
2022/03/14 03:44:55;;;;;;;;;;;10.10;99.90;;;;;;5073774;28;19939;-51
2022/03/14 03:47:20;;;;;;;;;;;10.00;99.90;;;;;;5051534;28;19920;-49
2022/03/14 03:49:46;;;;;;;;;;;10.00;99.90;;;;;;5062672;28;19920;-52
2022/03/14 03:52:11;;;;;;;;;;;10.00;99.90;;;;;;5085172;28;19930;-50
2022/03/14 03:54:37;;;;;;;;;;;9.90;99.90;;;;;;5060845;28;19928;-50
2022/03/14 03:57:02;;;;;;;;;;;10.00;99.90;;;;;;5072839;28;20004;-51
2022/03/14 03:59:28;;;;;;;;;;;10.00;99.90;;;;;;5076874;28;19927;-48
2022/03/14 04:01:53;;;;;;;;;;;10.10;99.90;;;;;;5077799;28;19921;-49
2022/03/14 04:04:19;;;;;;;;;;;10.00;99.90;;;;;;5067764;28;19925;-49
2022/03/14 04:06:44;;;;;;;;;;;10.00;99.90;;;;;;5078442;28;20420;-49
2022/03/14 04:09:10;;;;;;;;;;;10.10;99.90;;;;;;5079742;28;19977;-49
2022/03/14 04:11:36;;;;;;;;;;;10.10;99.90;;;;;;5080100;28;20036;-48
2022/03/14 04:14:02;;;;;;;;;;;10.00;99.90;;;;;;5080246;28;19990;-50
2022/03/14 04:16:28;;;;;;;;;;;10.00;99.90;;;;;;5073869;28;19926;-50
2022/03/14 04:18:53;;;;;;;;;;;10.00;99.90;;;;;;5081512;28;19986;-49
2022/03/14 04:21:20;;;;;;;;;;;10.00;99.90;;;;;;5082476;28;19942;-49
2022/03/14 04:23:46;;;;;;;;;;;10.10;99.90;;;;;;5073902;28;19920;-51
2022/03/14 04:26:11;;;;;;;;;;;10.10;99.90;;;;;;5080773;28;19921;-49
2022/03/14 04:28:39;;;;;;;;;;;10.10;99.90;;;;;;5079148;28;20300;-50
2022/03/14 04:31:08;;;;;;;;;;;10.00;99.90;;;;;;5070335;28;20019;-50
2022/03/14 04:33:34;;;;;;;;;;;10.00;99.90;;;;;;5061509;28;19920;-49
2022/03/14 04:35:59;;;;;;;;;;;10.00;99.90;;;;;;5061196;28;19981;-51
2022/03/14 04:38:25;;;;;;;;;;;10.00;99.90;;;;;;5081615;28;19940;-49
2022/03/14 04:40:50;;;;;;;;;;;10.00;99.90;;;;;;5075017;28;19923;-49
2022/03/14 04:43:16;;;;;;;;;;;10.10;99.90;;;;;;5073473;28;19920;-50
2022/03/14 04:45:42;;;;;;;;;;;10.00;99.90;;;;;;5080418;28;20054;-50
2022/03/14 04:48:07;;;;;;;;;;;10.10;99.90;;;;;;5060248;28;19921;-50
2022/03/14 04:50:34;;;;;;;;;;;10.10;99.90;;;;;;5091358;27;19920;-50
2022/03/14 04:53:00;;;;;;;;;;;10.00;99.90;;;;;;5110227;27;20287;-52
2022/03/14 04:55:25;;;;;;;;;;;10.00;99.90;;;;;;5112447;27;20053;-50
2022/03/14 04:57:51;;;;;;;;;;;10.10;99.90;;;;;;5111004;27;19938;-52
2022/03/14 05:00:17;;;;;;;;;;;10.00;99.90;;;;;;5113160;27;19919;-50
2022/03/14 05:02:42;;;;;;;;;;;10.00;99.90;;;;;;5094081;28;19919;-50
2022/03/14 05:05:10;;;;;;;;;;;10.00;99.90;;;;;;5101045;27;20399;-52
2022/03/14 05:07:36;;;;;;;;;;;10.00;99.90;;;;;;5105309;28;20354;-52
2022/03/14 05:10:02;;;;;;;;;;;9.90;99.90;;;;;;5113307;27;19966;-51
2022/03/14 05:12:30;;;;;;;;;;;9.90;99.90;;;;;;5113963;27;20377;-49
2022/03/14 05:14:56;;;;;;;;;;;9.90;99.90;;;;;;5111370;27;19920;-50
2022/03/14 05:17:21;;;;;;;;;;;9.80;99.90;;;;;;5110841;27;20416;-51
2022/03/14 05:19:47;;;;;;;;;;;9.80;99.90;;;;;;5112622;27;19942;-50
2022/03/14 05:22:12;;;;;;;;;;;9.80;99.90;;;;;;5112405;28;19930;-49
2022/03/14 05:24:38;;;;;;;;;;;9.70;99.90;;;;;;5109125;27;19919;-50
2022/03/14 05:27:03;;;;;;;;;;;9.70;99.90;;;;;;5112532;27;20002;-49
2022/03/14 05:29:29;;;;;;;;;;;9.70;99.90;;;;;;5112254;27;20066;-49
2022/03/14 05:31:54;;;;;;;;;;;9.60;99.90;;;;;;5105217;27;19927;-49
2022/03/14 05:34:20;;;;;;;;;;;9.60;99.90;;;;;;5114174;27;19919;-51
2022/03/14 05:36:45;;;;;;;;;;;9.60;99.90;;;;;;5112761;27;20471;-50
2022/03/14 05:39:11;;;;;;;;;;;9.50;99.90;;;;;;5113161;28;19923;-49
2022/03/14 05:41:36;;;;;;;;;;;9.50;99.90;;;;;;5112877;27;19927;-50
2022/03/14 05:44:02;;;;;;;;;;;9.50;99.90;;;;;;5112586;27;19920;-49
2022/03/14 05:46:28;;;;;;;;;;;9.40;99.90;;;;;;5113131;27;19920;-49
2022/03/14 05:48:53;;;;;;;;;;;9.40;99.90;;;;;;5112591;28;19923;-50
2022/03/14 05:51:19;;;;;;;;;;;9.40;99.90;;;;;;5111073;27;20395;-50
2022/03/14 05:53:44;;;;;;;;;;;9.40;99.90;;;;;;5110632;27;20312;-50
2022/03/14 05:56:10;;;;;;;;;;;9.30;99.90;;;;;;5109305;28;19963;-49
2022/03/14 05:58:35;;;;;;;;;;;9.30;99.90;;;;;;5108082;27;19985;-49
2022/03/14 06:01:01;;;;;;;;;;;;;;;;;;5124462;27;19919;-50
2022/03/14 06:03:27;;;;;;;;;;;9.20;99.90;;;;;;5112879;27;19920;-50
2022/03/14 06:05:52;;;;;;;;;;;9.30;99.90;;;;;;5112369;27;20690;-48
2022/03/14 06:08:18;;;;;;;;;;;9.20;99.90;;;;;;5118182;27;19920;-51
2022/03/14 06:10:46;;;;;;;;;;;9.20;99.90;;;;;;5111846;28;20019;-50
2022/03/14 06:13:13;;;;;;;;;;;9.20;99.90;;;;;;5112220;28;19919;-52
2022/03/14 06:15:39;;;;;;;;;;;9.20;99.90;;;;;;5118981;27;19919;-53
2022/03/14 06:18:04;;;;;;;;;;;9.20;99.90;;;;;;5118940;27;19920;-50
2022/03/14 06:20:30;;;;;;;;;;;9.20;99.90;;;;;;5109028;27;19920;-52
2022/03/14 06:22:55;;;;;;;;;;;9.20;99.90;;;;;;5107921;27;20289;-52
2022/03/14 06:25:21;;;;;;;;;;;9.10;99.90;;;;;;5117087;27;19927;-50
2022/03/14 06:27:46;;;;;;;;;;;9.10;99.90;;;;;;5110618;27;19926;-50
2022/03/14 06:30:13;;;;;;;;;;;9.10;99.90;;;;;;5107661;27;20265;-51
2022/03/14 06:32:39;;;;;;;;;;;9.10;99.90;;;;;;5112254;27;19923;-50
2022/03/14 06:35:06;;;;;;;;;;;9.10;99.90;;;;;;5112929;27;20414;-52
2022/03/14 06:37:31;;;;;;;;;;;9.10;99.90;;;;;;5108754;27;20387;-50
2022/03/14 06:39:57;;;;;;;;;;;9.10;99.90;;;;;;5119514;27;19998;-50
2022/03/14 06:42:23;;;;;;;;;;;9.10;99.90;;;;;;5121045;27;20002;-50
2022/03/14 06:44:50;;;;;;;;;;;9.10;99.90;;;;;;5113403;27;19927;-51
2022/03/14 06:47:19;;;;;;;;;;;9.10;99.90;;;;;;5114212;27;19927;-50
2022/03/14 06:49:45;;;;;;;;;;;9.10;99.90;;;;;;5111421;27;19926;-49
2022/03/14 06:52:11;;;;;;;;;;;9.10;99.90;;;;;;5107307;27;19923;-49
2022/03/14 06:54:37;;;;;;;;;;;9.10;99.90;;;;;;5111164;27;19934;-50
2022/03/14 06:57:02;;;;;;;;;;;9.10;99.90;;;;;;5105791;28;19919;-49
2022/03/14 06:59:28;;;;;;;;;;;9.10;99.90;;;;;;5093326;28;19927;-49
2022/03/14 07:01:54;;;;;;;;;;;9.10;99.90;;;;;;5108245;28;19965;-51
2022/03/14 07:04:19;;;;;;;;;;;9.10;99.90;;;;;;5102255;27;19973;-50
2022/03/14 07:06:45;;;;;;;;;;;9.10;99.90;;;;;;5109950;28;20353;-49
2022/03/14 07:09:11;;;;;;;;;;;9.10;99.90;;;;;;5111516;28;19919;-52
2022/03/14 07:11:36;;;;;;;;;;;9.10;99.90;;;;;;5111162;28;19926;-53
2022/03/14 07:14:02;;;;;;;;;;;9.10;99.90;;;;;;5112128;28;20057;-51
2022/03/14 07:16:28;;;;;;;;;;;9.20;99.90;;;;;;5111999;28;19920;-49
2022/03/14 07:18:53;;;;;;;;;;;9.10;99.90;;;;;;5106804;28;19934;-50
2022/03/14 07:21:19;;;;;;;;;;;9.10;99.90;;;;;;5111794;28;19928;-51
2022/03/14 07:23:44;;;;;;;;;;;9.10;99.90;;;;;;5112681;28;19919;-50
2022/03/14 07:26:11;;;;;;;;;;;;;;;;;;5093716;28;20335;-51
2022/03/14 07:28:36;;;;;;;;;;;9.10;99.90;;;;;;5111283;28;19923;-50
2022/03/14 07:31:02;;;;;;;;;;;9.20;99.90;;;;;;5111722;28;19919;-50
2022/03/14 07:33:28;;;;;;;;;;;9.20;99.90;;;;;;5109874;28;20317;-53
2022/03/14 07:35:54;;;;;;;;;;;9.20;99.90;;;;;;5111074;28;20022;-53
2022/03/14 07:38:20;;;;;;;;;;;9.20;99.90;;;;;;5111804;28;20006;-51
2022/03/14 07:40:45;;;;;;;;;;;9.20;99.90;;;;;;5116185;28;19919;-50
2022/03/14 07:43:11;;;;;;;;;;;9.20;99.90;;;;;;5109833;28;19926;-53
2022/03/14 07:45:37;;;;;;;;;;;9.20;99.90;;;;;;5110849;28;19984;-51
2022/03/14 07:48:03;;;;;;;;;;;9.20;99.90;;;;;;5110818;28;19972;-52
2022/03/14 07:50:29;;;;;;;;;;;9.30;99.90;;;;;;5111706;28;20379;-51
2022/03/14 07:52:55;;;;;;;;;;;9.30;99.90;;;;;;5106709;28;19976;-50
2022/03/14 07:55:21;;;;;;;;;;;9.40;99.90;;;;;;5111618;28;19942;-52
2022/03/14 07:57:47;;;;;;;;;;;9.30;99.90;;;;;;5112034;28;19998;-53
2022/03/14 08:00:21;;;;;;;;;;;9.40;99.90;;;;;;5110487;28;20060;-50
2022/03/14 08:02:47;;;;;;;;;;;9.40;99.90;;;;;;5103583;28;20304;-53
2022/03/14 08:05:14;;;;;;;;;;;9.40;99.90;;;;;;5105647;28;19928;-51
2022/03/14 08:07:45;;;;;;;;;;;9.40;99.90;;;;;;5100403;28;19943;-51
2022/03/14 08:10:11;;;;;;;;;;;9.40;99.90;;;;;;5102876;28;19961;-51
2022/03/14 08:12:45;;;;;;;;;;;9.40;99.90;;;;;;5101559;28;20282;-50
2022/03/14 08:15:11;;;;;;;;;;;9.40;99.90;;;;;;5104561;28;19982;-51
2022/03/14 08:17:36;;;;;;;;;;;9.40;99.90;;;;;;5105128;27;20414;-49
2022/03/14 08:20:03;;;;;;;;;;;9.40;99.90;;;;;;5112053;27;19943;-49
2022/03/14 08:22:29;;;;;;;;;;;9.50;99.90;;;;;;5102413;27;19927;-50
2022/03/14 08:24:54;;;;;;;;;;;9.50;99.90;;;;;;5107837;27;20270;-51
2022/03/14 08:27:20;;;;;;;;;;;9.50;99.90;;;;;;5110641;27;19952;-50
2022/03/14 08:29:45;;;;;;;;;;;9.50;99.90;;;;;;5110130;27;19919;-52
2022/03/14 08:32:12;;;;;;;;;;;9.50;99.90;;;;;;5107901;28;19926;-53
2022/03/14 08:34:37;;;;;;;;;;;9.50;99.90;;;;;;5112331;28;19973;-51
2022/03/14 08:37:03;;;;;;;;;;;9.50;99.90;;;;;;5113335;28;19919;-49
2022/03/14 08:39:31;;;;;;;;;;;9.50;99.90;;;;;;5113842;28;20003;-53
2022/03/14 08:41:57;;;;;;;;;;;9.40;99.90;;;;;;5108730;28;19973;-52
2022/03/14 08:44:22;;;;;;;;;;;9.40;99.90;;;;;;5115017;28;19924;-53
2022/03/14 08:46:48;;;;;;;;;;;9.30;99.90;;;;;;5111819;28;20347;-50
2022/03/14 08:49:14;;;;;;;;;;;9.40;99.90;;;;;;5114853;28;20018;-50
2022/03/14 08:51:40;;;;;;;;;;;9.30;99.90;;;;;;5112139;28;19927;-52
2022/03/14 08:54:06;;;;;;;;;;;9.30;99.90;;;;;;5114224;28;19920;-53
2022/03/14 08:56:32;;;;;;;;;;;9.20;99.90;;;;;;5108968;28;19920;-50
2022/03/14 08:58:57;;;;;;;;;;;9.20;99.90;;;;;;5103461;28;19926;-50
2022/03/14 09:01:23;;;;;;;;;;;9.20;99.90;;;;;;5113151;28;20250;-51
2022/03/14 09:03:49;;;;;;;;;;;9.20;99.90;;;;;;5109070;28;19920;-50
2022/03/14 09:06:14;;;;;;;;;;;9.10;99.90;;;;;;5112683;28;20411;-53
2022/03/14 09:08:40;;;;;;;;;;;9.10;99.90;;;;;;5114698;28;19919;-53
2022/03/14 09:11:05;;;;;;;;;;;9.10;99.90;;;;;;5113255;28;19920;-53
2022/03/14 09:13:31;;;;;;;;;;;9.10;99.90;;;;;;5098249;28;19920;-51
2022/03/14 09:15:56;;;;;;;;;;;9.10;99.90;;;;;;5113351;28;20010;-53
2022/03/14 09:18:26;;;;;;;;;;;9.10;99.90;;;;;;5113417;28;19962;-51
2022/03/14 09:20:52;;;;;;;;;;;9.00;99.90;;;;;;5113165;28;19927;-51
2022/03/14 09:23:19;;;;;;;;;;;9.00;99.90;;;;;;5114106;28;19920;-50
2022/03/14 09:25:45;;;;;;;;;;;9.00;99.90;;;;;;5114004;28;19926;-50
2022/03/14 09:28:11;;;;;;;;;;;9.10;99.90;;;;;;5113524;28;19994;-49
2022/03/14 09:30:36;;;;;;;;;;;9.10;99.90;;;;;;5111715;28;20379;-49
2022/03/14 09:33:02;;;;;;;;;;;9.10;99.90;;;;;;5103932;28;19930;-50
2022/03/14 09:35:27;;;;;;;;;;;9.10;99.90;;;;;;5113356;28;19937;-49
2022/03/14 09:37:54;;;;;;;;;;;9.20;99.90;;;;;;5112401;28;19924;-50
2022/03/14 09:40:20;;;;;;;;;;;9.20;99.90;;;;;;5112537;28;20299;-52
2022/03/14 09:42:47;;;;;;;;;;;9.20;99.90;;;;;;5113899;28;19955;-50
2022/03/14 09:45:14;;;;;;;;;;;9.30;99.90;;;;;;5111662;28;19928;-52
2022/03/14 09:47:41;;;;;;;;;;;9.40;99.90;;;;;;5112262;28;19935;-54
2022/03/14 09:50:08;;;;;;;;;;;9.50;99.90;;;;;;5113027;28;19920;-51
2022/03/14 09:52:35;;;;;;;;;;;9.50;99.90;;;;;;5112943;28;19915;-51
2022/03/14 09:55:01;;;;;;;;;;;9.50;99.90;;;;;;5113681;28;19930;-53
2022/03/14 09:57:27;;;;;;;;;;;9.60;99.90;;;;;;5113215;28;19920;-50
2022/03/14 09:59:53;;;;;;;;;;;9.70;99.90;;;;;;5113322;28;19959;-53
2022/03/14 10:02:19;;;;;;;;;;;9.70;99.90;;;;;;5111605;28;19927;-53
2022/03/14 10:04:44;;;;;;;;;;;9.70;99.90;;;;;;5105699;28;19920;-52
2022/03/14 10:07:10;;;;;;;;;;;9.80;99.90;;;;;;5113224;28;20014;-52
2022/03/14 10:09:36;;;;;;;;;;;9.80;99.90;;;;;;5111175;28;19920;-51
2022/03/14 10:12:02;;;;;;;;;;;9.90;99.90;;;;;;5112453;28;20301;-50
2022/03/14 10:14:28;;;;;;;;;;;9.90;99.90;;;;;;5113401;28;19927;-52
2022/03/14 10:16:56;;;;;;;;;;;10.00;99.90;;;;;;5111437;28;20376;-50
2022/03/14 10:19:37;;;;;;;;;;;10.00;99.90;;;;;;5110266;28;19999;-52
2022/03/14 10:22:14;;;;;;;;;;;10.10;99.90;;;;;;5097797;28;20392;-54
2022/03/14 10:24:39;;;;;;;;;;;10.10;99.90;;;;;;5112920;28;20006;-51
2022/03/14 10:27:05;;;;;;;;;;;10.10;99.90;;;;;;5112659;28;19953;-53
2022/03/14 10:29:31;;;;;;;;;;;10.10;99.90;;;;;;5112195;28;19926;-51
2022/03/14 10:31:57;;;;;;;;;;;10.00;99.90;;;;;;5111825;28;19957;-53
2022/03/14 10:34:23;;;;;;;;;;;10.00;99.90;;;;;;5110216;28;20484;-50
2022/03/14 10:36:51;;;;;;;;;;;10.00;99.90;;;;;;5112552;28;20330;-49
2022/03/14 10:39:16;;;;;;;;;;;9.90;99.90;;;;;;5111669;28;19965;-50
2022/03/14 10:41:46;;;;;;;;;;;9.90;99.90;;;;;;5110163;28;19920;-52
2022/03/14 10:44:21;;;;;;;;;;;9.80;99.90;;;;;;5112603;28;19950;-52
2022/03/14 10:46:47;;;;;;;;;;;9.90;99.90;;;;;;5110232;28;19955;-50
2022/03/14 10:49:14;;;;;;;;;;;9.90;99.90;;;;;;5107102;28;19970;-51
2022/03/14 10:51:53;;;;;;;;;;;9.90;99.90;;;;;;5112067;28;19972;-51
2022/03/14 10:54:18;;;;;;;;;;;9.90;99.90;;;;;;5104520;28;20292;-52
2022/03/14 10:57:02;;;;;;;;;;;10.00;99.90;;;;;;5112630;28;19924;-51
2022/03/14 10:59:34;;;;;;;;;;;10.00;99.90;;;;;;5112651;28;19923;-51
2022/03/14 11:02:00;;;;;;;;;;;10.10;99.90;;;;;;5111404;28;19927;-50
2022/03/14 11:04:27;;;;;;;;;;;10.30;99.90;;;;;;5111416;28;19969;-52
2022/03/14 11:07:01;;;;;;;;;;;10.40;99.90;;;;;;5111850;28;19927;-51
2022/03/14 11:09:37;;;;;;;;;;;10.50;99.90;;;;;;5112365;28;20218;-50
2022/03/14 11:12:10;;;;;;;;;;;10.60;99.90;;;;;;5110004;28;19970;-54
2022/03/14 11:14:36;;;;;;;;;;;10.70;99.90;;;;;;5112915;28;20288;-54
2022/03/14 11:17:13;;;;;;;;;;;10.70;99.90;;;;;;5112159;28;19919;-51
2022/03/14 11:19:39;;;;;;;;;;;10.90;99.90;;;;;;5110803;28;19923;-52
2022/03/14 11:22:07;;;;;;;;;;;10.90;99.90;;;;;;5111840;28;20006;-53
2022/03/14 11:24:32;;;;;;;;;;;10.90;99.90;;;;;;5112448;28;19966;-50
2022/03/14 11:26:58;;;;;;;;;;;10.90;99.90;;;;;;5111436;28;19978;-52
2022/03/14 11:29:26;;;;;;;;;;;11.00;99.90;;;;;;5111427;28;20011;-54
2022/03/14 11:31:52;;;;;;;;;;;11.10;99.90;;;;;;5102615;28;19924;-51
2022/03/14 11:34:18;;;;;;;;;;;11.10;99.90;;;;;;5107815;28;20438;-53
2022/03/14 11:36:44;;;;;;;;;;;11.10;99.90;;;;;;5111696;28;19920;-51
2022/03/14 11:39:09;;;;;;;;;;;11.00;99.90;;;;;;5110264;28;19942;-52
2022/03/14 11:41:38;;;;;;;;;;;11.00;99.90;;;;;;5111302;28;19923;-54
2022/03/14 11:44:05;;;;;;;;;;;11.00;99.90;;;;;;5110559;28;20011;-51
2022/03/14 11:46:34;;;;;;;;;;;11.10;99.90;;;;;;5111602;28;19919;-50
2022/03/14 11:49:13;;;;;;;;;;;11.20;99.90;;;;;;5109880;28;19920;-52
2022/03/14 11:51:40;;;;;;;;;;;11.40;99.90;;;;;;5102426;28;20274;-54
2022/03/14 11:54:12;;;;;;;;;;;11.50;99.90;;;;;;5097959;28;19939;-50
2022/03/14 11:56:38;;;;;;;;;;;11.60;99.90;;;;;;5113804;28;19919;-50
2022/03/14 11:59:10;;;;;;;;;;;11.80;99.90;;;;;;5094995;28;19920;-55
2022/03/14 12:01:46;;;;;;;;;;;12.00;99.90;;;;;;5111866;28;19919;-51
2022/03/14 12:04:25;;;;;;;;;;;12.00;99.90;;;;;;5097032;28;19919;-53
2022/03/14 12:06:55;;;;;;;;;;;12.10;99.90;;;;;;5082216;28;19926;-51
2022/03/14 12:09:24;;;;;;;;;;;12.10;99.90;;;;;;5108627;28;19920;-51
2022/03/14 12:11:53;;;;;;;;;;;12.20;99.90;;;;;;5106922;28;19920;-51
2022/03/14 12:14:37;;;;;;;;;;;12.20;99.90;;;;;;5105892;28;20034;-52
2022/03/14 12:17:24;;;;;;;;;;;12.30;99.90;;;;;;5115052;28;19927;-51
2022/03/14 12:19:49;;;;;;;;;;;12.40;99.90;;;;;;5109954;28;19943;-55
2022/03/14 12:22:35;;;;;;;;;;;12.50;99.90;;;;;;5065750;28;20297;-54
2022/03/14 12:25:02;;;;;;;;;;;12.60;99.90;;;;;;5114377;28;19938;-54
2022/03/14 12:27:33;;;;;;;;;;;12.50;99.90;;;;;;5115732;28;20289;-52
2022/03/14 12:29:59;;;;;;;;;;;12.60;99.90;;;;;;5085243;28;19920;-54
2022/03/14 12:32:31;;;;;;;;;;;12.50;99.90;;;;;;5108410;28;19989;-53
2022/03/14 12:35:01;;;;;;;;;;;12.50;99.90;;;;;;5114534;28;19919;-51
2022/03/14 12:37:41;;;;;;;;;;;12.40;99.90;;;;;;5096097;28;19927;-54
2022/03/14 12:40:07;;;;;;;;;;;12.40;99.90;;;;;;5113274;28;19927;-53
2022/03/14 12:42:43;;;;;;;;;;;12.50;99.90;;;;;;5114288;28;19966;-53
2022/03/14 12:45:13;;;;;;;;;;;12.60;99.90;;;;;;5114485;28;19919;-54
2022/03/14 12:47:40;;;;;;;;;;;12.70;99.90;;;;;;5106788;28;19920;-52
2022/03/14 12:50:05;;;;;;;;;;;13.00;99.90;;;;;;5106803;28;19919;-50
2022/03/14 12:52:31;;;;;;;;;;;13.10;99.90;;;;;;5100909;28;19919;-50
2022/03/14 12:55:16;;;;;;;;;;;13.30;99.90;;;;;;5107068;28;19973;-51
2022/03/14 12:57:42;;;;;;;;;;;13.40;99.90;;;;;;5104645;28;20395;-50
2022/03/14 13:00:10;;;;;;;;;;;13.50;99.90;;;;;;5100932;28;20008;-54
2022/03/14 13:02:35;;;;;;;;;;;13.60;99.90;;;;;;5095156;28;19927;-53
2022/03/14 13:05:02;;;;;;;;;;;13.60;99.90;;;;;;5102490;28;19920;-51
2022/03/14 13:07:28;;;;;;;;;;;13.60;99.90;;;;;;5094505;28;19920;-52
2022/03/14 13:09:54;;;;;;;;;;;13.70;99.90;;;;;;5102546;28;19919;-52
2022/03/14 13:12:20;;;;;;;;;;;13.70;99.90;;;;;;5102157;28;19919;-50
2022/03/14 13:14:45;;;;;;;;;;;13.70;99.90;;;;;;5104363;28;19926;-52
2022/03/14 13:17:19;;;;;;;;;;;13.60;99.90;;;;;;5101553;28;19941;-51
2022/03/14 13:19:46;;;;;;;;;;;13.80;99.90;;;;;;5099993;28;20438;-51
2022/03/14 13:22:12;;;;;;;;;;;13.90;99.90;;;;;;5095331;28;19924;-51
2022/03/14 13:24:38;;;;;;;;;;;14.00;99.90;;;;;;5091999;28;20034;-50
2022/03/14 13:27:03;;;;;;;;;;;14.10;99.90;;;;;;5091420;28;20003;-51
2022/03/14 13:29:33;;;;;;;;;;;14.20;99.90;;;;;;5094278;28;19999;-50
2022/03/14 13:32:00;;;;;;;;;;;14.40;99.90;;;;;;5091354;28;20331;-50
2022/03/14 13:34:28;;;;;;;;;;;14.60;99.90;;;;;;5092671;28;19935;-51
2022/03/14 13:37:02;;;;;;;;;;;14.50;99.90;;;;;;5092509;28;19970;-53
2022/03/14 13:39:28;;;;;;;;;;;14.60;99.90;;;;;;5088990;28;20425;-51
2022/03/14 13:41:55;;;;;;;;;;;14.70;99.90;;;;;;5094002;28;19920;-52
2022/03/14 13:44:23;;;;;;;;;;;14.70;99.90;;;;;;5092038;28;19986;-51
2022/03/14 13:46:49;;;;;;;;;;;14.80;99.90;;;;;;5088225;28;19920;-52
2022/03/14 13:49:23;;;;;;;;;;;14.90;99.90;;;;;;5089427;28;19978;-52
2022/03/14 13:51:54;;;;;;;;;;;14.80;99.90;;;;;;5096788;28;19927;-52
2022/03/14 13:54:25;;;;;;;;;;;14.60;99.90;;;;;;5105634;28;19927;-52
2022/03/14 13:56:59;;;;;;;;;;;14.50;99.90;;;;;;5109313;27;20436;-52
2022/03/14 13:59:27;;;;;;;;;;;14.40;99.90;;;;;;5116213;27;20370;-50
2022/03/14 14:01:53;;;;;;;;;;;14.50;99.90;;;;;;5110109;28;20350;-47
2022/03/14 14:04:25;;;;;;;;;;;14.40;99.90;;;;;;5117596;27;19924;-47
2022/03/14 14:06:52;;;;;;;;;;;14.20;99.90;;;;;;5112533;28;19973;-47
2022/03/14 14:09:25;;;;;;;;;;;14.10;99.90;;;;;;5114580;27;20011;-49
2022/03/14 14:11:57;;;;;;;;;;;14.00;99.90;;;;;;5110381;28;20334;-47
2022/03/14 14:14:30;;;;;;;;;;;13.80;99.90;;;;;;5110822;27;19920;-51
2022/03/14 14:17:07;;;;;;;;;;;13.90;99.90;;;;;;5110566;28;20254;-48
2022/03/14 14:19:33;;;;;;;;;;;14.20;99.90;;;;;;5108499;27;20122;-50
2022/03/14 14:21:58;;;;;;;;;;;14.60;99.90;;;;;;5109676;28;20002;-48